Time;durP1;ratioP1;P1;durP2;ratioP2;P2;SDS_P1;SDS_P2;PMS_P1;PMS_P2;Temp;Humidity;BMP_temperature;BMP_pressure;BME280_temperature;BME280_humidity;BME280_pressure;Samples;Min_cycle;Max_cycle;Signal;HPM_P1;HPM_P2
2021/12/14 00:00:07;;;;;;;0.00;0.00;;;5.60;99.90;;;;;;5076353;28;20036;-46
2021/12/14 00:02:33;;;;;;;0.00;0.00;;;5.50;99.90;;;;;;5058417;28;20537;-47
2021/12/14 00:05:00;;;;;;;0.00;0.00;;;5.50;99.90;;;;;;5091779;28;20052;-49
2021/12/14 00:07:26;;;;;;;0.00;0.00;;;5.50;99.90;;;;;;5096477;28;20089;-48
2021/12/14 00:10:02;;;;;;;0.00;0.00;;;5.50;99.90;;;;;;5096514;28;20103;-47
2021/12/14 00:15:29;;;;;;;0.00;0.00;;;5.50;99.90;;;;;;5061951;28;20375;-50
2021/12/14 00:18:02;;;;;;;0.10;0.10;;;5.50;99.90;;;;;;5096112;28;20394;-49
2021/12/14 00:20:28;;;;;;;0.00;0.00;;;5.40;99.90;;;;;;5096385;28;20021;-47
2021/12/14 00:25:35;;;;;;;0.00;0.00;;;5.40;99.90;;;;;;5096222;28;20028;-51
2021/12/14 00:28:10;;;;;;;0.00;0.00;;;5.40;99.90;;;;;;5096194;28;20051;-47
2021/12/14 00:30:37;;;;;;;0.20;0.20;;;5.30;99.90;;;;;;5096173;28;20035;-47
2021/12/14 00:33:07;;;;;;;0.00;0.00;;;5.20;99.90;;;;;;5096035;28;20039;-49
2021/12/14 00:35:32;;;;;;;0.00;0.00;;;5.20;99.90;;;;;;5096046;28;20020;-49
2021/12/14 00:37:58;;;;;;;0.00;0.00;;;5.20;99.90;;;;;;5095617;28;20069;-47
2021/12/14 00:40:29;;;;;;;0.00;0.00;;;5.20;99.90;;;;;;5095586;28;20027;-48
2021/12/14 00:42:56;;;;;;;0.00;0.00;;;5.20;99.90;;;;;;5095864;28;20024;-50
2021/12/14 00:45:24;;;;;;;0.00;0.00;;;5.30;99.90;;;;;;5096064;28;20070;-49
2021/12/14 00:47:50;;;;;;;0.00;0.00;;;5.30;99.90;;;;;;5095574;28;20043;-50
2021/12/14 00:50:19;;;;;;;0.00;0.00;;;5.20;99.90;;;;;;5095396;28;20016;-49
2021/12/14 00:52:46;;;;;;;0.00;0.00;;;5.20;99.90;;;;;;5094214;28;20028;-46
2021/12/14 00:55:14;;;;;;;0.00;0.00;;;5.30;99.90;;;;;;5095672;28;20020;-46
2021/12/14 00:57:40;;;;;;;0.00;0.00;;;5.30;99.90;;;;;;5077449;28;20020;-48
2021/12/14 01:00:14;;;;;;;0.08;0.08;;;5.20;99.90;;;;;;5095310;28;20024;-46
2021/12/14 01:02:40;;;;;;;0.00;0.00;;;5.10;99.90;;;;;;5095569;28;20032;-47
2021/12/14 01:05:17;;;;;;;0.00;0.00;;;5.10;99.90;;;;;;5095703;28;20056;-49
2021/12/14 01:07:43;;;;;;;0.00;0.00;;;5.10;99.90;;;;;;5095334;28;20456;-47
2021/12/14 01:10:21;;;;;;;0.00;0.00;;;5.00;99.90;;;;;;5095084;28;20027;-47
2021/12/14 01:12:51;;;;;;;0.00;0.00;;;4.80;99.90;;;;;;5095393;28;20055;-52
2021/12/14 01:15:28;;;;;;;0.00;0.00;;;4.80;99.90;;;;;;5094967;28;20474;-47
2021/12/14 01:18:29;;;;;;;0.00;0.00;;;4.60;99.90;;;;;;5094979;28;20024;-51
2021/12/14 01:21:10;;;;;;;0.00;0.00;;;4.50;99.90;;;;;;5094876;28;20020;-45
2021/12/14 01:23:37;;;;;;;0.00;0.00;;;4.40;99.90;;;;;;5095202;28;20035;-48
2021/12/14 01:26:12;;;;;;;0.00;0.00;;;4.50;99.90;;;;;;5094757;28;20110;-48
2021/12/14 01:28:41;;;;;;;0.00;0.00;;;4.50;99.90;;;;;;5094924;28;20028;-46
2021/12/14 01:31:25;;;;;;;0.00;0.00;;;4.60;99.90;;;;;;5094909;28;20063;-47
2021/12/14 01:33:55;;;;;;;0.00;0.00;;;4.60;99.90;;;;;;5094925;28;20028;-46
2021/12/14 01:36:46;;;;;;;0.00;0.00;;;4.60;99.90;;;;;;5094900;28;20024;-50
2021/12/14 01:42:08;;;;;;;1.23;1.13;;;4.50;99.90;;;;;;5094708;28;20036;-47
2021/12/14 01:44:38;;;;;;;0.00;0.00;;;4.30;99.90;;;;;;5094489;28;20478;-46
2021/12/14 01:47:12;;;;;;;0.00;0.00;;;4.20;99.90;;;;;;5094677;28;20024;-49
2021/12/14 01:49:38;;;;;;;0.00;0.00;;;4.10;99.90;;;;;;5094643;28;20043;-46
2021/12/14 01:52:08;;;;;;;0.00;0.00;;;4.00;99.90;;;;;;5094264;28;20032;-46
2021/12/14 01:54:42;;;;;;;0.03;0.03;;;4.00;99.90;;;;;;5094860;28;20039;-49
2021/12/14 01:57:12;;;;;;;0.00;0.00;;;4.10;99.90;;;;;;5094288;28;20020;-49
2021/12/14 01:59:42;;;;;;;0.00;0.00;;;3.70;99.90;;;;;;5094164;28;20026;-48
2021/12/14 02:04:43;;;;;;;0.00;0.00;;;3.90;99.90;;;;;;5093611;28;20105;-49
2021/12/14 02:07:10;;;;;;;0.20;0.20;;;3.90;99.90;;;;;;5094104;28;20084;-48
2021/12/14 02:09:38;;;;;;;0.00;0.00;;;4.00;99.90;;;;;;5094296;28;20058;-49
2021/12/14 02:12:14;;;;;;;0.10;0.10;;;4.10;99.90;;;;;;5093902;28;20085;-48
2021/12/14 02:14:40;;;;;;;0.00;0.00;;;3.90;99.90;;;;;;5093805;28;20031;-46
2021/12/14 02:17:08;;;;;;;0.35;0.35;;;3.70;99.90;;;;;;5075987;28;20028;-47
2021/12/14 02:19:34;;;;;;;0.00;0.00;;;3.80;99.90;;;;;;5093702;28;20077;-49
2021/12/14 02:22:03;;;;;;;0.00;0.00;;;3.80;99.90;;;;;;5093688;28;20035;-46
2021/12/14 02:24:30;;;;;;;0.00;0.00;;;3.70;99.90;;;;;;5093905;28;20028;-49
2021/12/14 02:26:56;;;;;;;0.00;0.00;;;3.60;99.90;;;;;;5093737;28;20489;-50
2021/12/14 02:29:35;;;;;;;0.00;0.00;;;3.70;99.90;;;;;;5093676;28;20024;-48
2021/12/14 02:32:15;;;;;;;0.00;0.00;;;3.80;99.90;;;;;;5093652;28;20062;-50
2021/12/14 02:34:52;;;;;;;0.00;0.00;;;3.90;99.90;;;;;;5093996;28;20447;-50
2021/12/14 02:37:34;;;;;;;0.00;0.00;;;4.00;99.90;;;;;;5094010;28;20055;-47
2021/12/14 02:40:18;;;;;;;0.00;0.00;;;3.90;99.90;;;;;;5094143;28;20035;-47
2021/12/14 02:42:44;;;;;;;0.95;0.95;;;3.70;99.90;;;;;;5093789;28;20359;-48
2021/12/14 02:45:10;;;;;;;0.00;0.00;;;3.70;99.90;;;;;;5093539;28;20024;-50
2021/12/14 02:47:36;;;;;;;0.00;0.00;;;3.70;99.90;;;;;;5093222;28;20210;-50
2021/12/14 02:50:04;;;;;;;0.00;0.00;;;3.70;99.90;;;;;;5093448;28;20074;-47
2021/12/14 02:52:37;;;;;;;0.00;0.00;;;3.90;99.90;;;;;;5093434;28;20063;-48
2021/12/14 02:55:27;;;;;;;0.00;0.00;;;3.90;99.90;;;;;;5093805;28;20095;-48
2021/12/14 02:57:57;;;;;;;0.00;0.00;;;4.00;99.90;;;;;;5093770;28;20036;-47
2021/12/14 03:00:27;;;;;;;0.00;0.00;;;4.00;99.90;;;;;;5093551;28;20429;-47
2021/12/14 03:02:53;;;;;;;0.00;0.00;;;3.90;99.90;;;;;;5075559;28;20632;-49
2021/12/14 03:05:23;;;;;;;0.28;0.28;;;3.90;99.90;;;;;;5093657;28;20124;-48
2021/12/14 03:08:07;;;;;;;0.00;0.00;;;3.90;99.90;;;;;;5093599;28;20463;-47
2021/12/14 03:10:54;;;;;;;0.00;0.00;;;3.90;99.90;;;;;;5093659;28;20024;-48
2021/12/14 03:13:22;;;;;;;0.00;0.00;;;3.90;99.90;;;;;;5093608;28;20416;-50
2021/12/14 03:15:55;;;;;;;0.00;0.00;;;3.80;99.90;;;;;;5075634;28;20032;-48
2021/12/14 03:18:28;;;;;;;0.00;0.00;;;3.80;99.90;;;;;;5079377;28;20028;-47
2021/12/14 03:21:04;;;;;;;0.00;0.00;;;3.90;99.90;;;;;;5097126;28;20462;-45
2021/12/14 03:23:34;;;;;;;0.00;0.00;;;3.80;99.90;;;;;;5097337;28;20050;-49
2021/12/14 03:26:04;;;;;;;0.00;0.00;;;3.80;99.90;;;;;;5097780;28;20096;-47
2021/12/14 03:28:31;;;;;;;0.00;0.00;;;3.80;99.90;;;;;;5079265;28;20062;-46
2021/12/14 03:31:11;;;;;;;0.00;0.00;;;3.80;99.90;;;;;;5097293;28;20117;-47
2021/12/14 03:33:48;;;;;;;0.00;0.00;;;3.80;99.90;;;;;;5097348;28;20035;-47
2021/12/14 03:36:20;;;;;;;0.00;0.00;;;4.00;99.90;;;;;;5097624;28;20049;-49
2021/12/14 03:38:58;;;;;;;0.00;0.00;;;3.90;99.90;;;;;;5097221;28;20035;-46
2021/12/14 03:41:29;;;;;;;0.00;0.00;;;3.70;99.90;;;;;;5097388;28;20081;-49
2021/12/14 03:44:19;;;;;;;2.05;1.85;;;3.70;99.90;;;;;;5096873;28;20024;-47
2021/12/14 03:46:48;;;;;;;0.00;0.00;;;3.70;99.90;;;;;;5090986;28;20039;-46
2021/12/14 03:49:15;;;;;;;0.00;0.00;;;3.80;99.90;;;;;;5096710;28;20482;-49
2021/12/14 03:51:41;;;;;;;0.00;0.00;;;3.80;99.90;;;;;;5096561;28;20039;-47
2021/12/14 03:54:08;;;;;;;0.00;0.00;;;3.80;99.90;;;;;;5096396;28;20028;-47
2021/12/14 03:56:33;;;;;;;0.00;0.00;;;3.70;99.90;;;;;;5091539;28;20027;-47
2021/12/14 03:58:59;;;;;;;0.00;0.00;;;3.80;99.90;;;;;;5084245;28;20390;-50
2021/12/14 04:01:34;;;;;;;0.00;0.00;;;3.70;99.90;;;;;;5074023;28;20531;-49
2021/12/14 04:04:45;;;;;;;0.00;0.00;;;3.80;99.90;;;;;;5074161;28;20052;-48
2021/12/14 04:07:14;;;;;;;0.00;0.00;;;3.60;99.90;;;;;;5065129;28;20049;-49
2021/12/14 04:09:41;;;;;;;0.10;0.10;;;3.60;99.90;;;;;;5074104;28;20109;-49
2021/12/14 04:12:13;;;;;;;0.00;0.00;;;3.70;99.90;;;;;;5073836;28;20067;-51
2021/12/14 04:14:46;;;;;;;0.00;0.00;;;3.80;99.90;;;;;;5056054;28;20025;-47
2021/12/14 04:17:13;;;;;;;0.00;0.00;;;3.60;99.90;;;;;;5075341;28;20032;-48
2021/12/14 04:19:40;;;;;;;0.00;0.00;;;3.70;99.90;;;;;;5076052;28;20021;-46
2021/12/14 04:22:13;;;;;;;0.00;0.00;;;3.70;99.90;;;;;;5074677;28;20446;-50
2021/12/14 04:24:41;;;;;;;0.00;0.00;;;3.80;99.90;;;;;;5076177;28;20036;-46
2021/12/14 04:27:22;;;;;;;0.00;0.00;;;3.90;99.90;;;;;;5075395;28;20036;-46
2021/12/14 04:29:49;;;;;;;0.00;0.00;;;3.90;99.90;;;;;;5075657;28;20024;-47
2021/12/14 04:32:16;;;;;;;0.00;0.00;;;3.70;99.90;;;;;;5075870;28;20035;-49
2021/12/14 04:34:43;;;;;;;0.55;0.55;;;3.60;99.90;;;;;;5057784;28;20031;-48
2021/12/14 04:37:10;;;;;;;0.00;0.00;;;3.80;99.90;;;;;;5075419;28;20028;-48
2021/12/14 04:39:42;;;;;;;0.00;0.00;;;3.70;99.90;;;;;;5075785;28;20044;-49
2021/12/14 04:53:53;;;;;;;0.00;0.00;;;3.40;99.90;;;;;;5075512;28;20039;-48
2021/12/14 04:56:24;;;;;;;0.00;0.00;;;3.50;99.90;;;;;;5075203;28;20046;-50
2021/12/14 04:58:57;;;;;;;0.00;0.00;;;3.50;99.90;;;;;;5075397;28;20025;-48
2021/12/14 05:01:24;;;;;;;0.00;0.00;;;3.50;99.90;;;;;;5057222;28;20067;-49
2021/12/14 05:03:51;;;;;;;0.00;0.00;;;3.50;99.90;;;;;;5074782;28;20049;-49
2021/12/14 05:06:20;;;;;;;0.00;0.00;;;3.30;99.90;;;;;;5057287;28;20056;-48
2021/12/14 05:11:23;;;;;;;0.00;0.00;;;3.40;99.90;;;;;;5074661;28;20043;-51
2021/12/14 05:14:02;;;;;;;0.00;0.00;;;3.30;99.90;;;;;;5074240;28;20020;-51
2021/12/14 05:16:30;;;;;;;0.00;0.00;;;3.30;99.90;;;;;;5074669;28;20017;-48
2021/12/14 05:19:00;;;;;;;0.00;0.00;;;3.20;99.90;;;;;;5074734;28;20103;-48
2021/12/14 05:21:30;;;;;;;0.00;0.00;;;3.30;99.90;;;;;;5074414;28;20025;-45
2021/12/14 05:23:57;;;;;;;0.00;0.00;;;3.30;99.90;;;;;;5074431;28;20028;-51
2021/12/14 05:26:23;;;;;;;0.00;0.00;;;3.20;99.90;;;;;;5074437;28;20108;-48
2021/12/14 05:28:49;;;;;;;0.17;0.17;;;3.20;99.90;;;;;;5074463;28;20487;-49
2021/12/14 05:31:15;;;;;;;0.00;0.00;;;3.20;99.90;;;;;;5074551;28;20036;-50
2021/12/14 05:33:42;;;;;;;0.00;0.00;;;3.00;99.90;;;;;;5074353;28;20368;-46
2021/12/14 05:36:13;;;;;;;0.00;0.00;;;2.90;99.90;;;;;;5074174;28;20039;-47
2021/12/14 05:44:11;;;;;;;0.00;0.00;;;2.90;99.90;;;;;;5081863;28;20097;-47
2021/12/14 05:46:37;;;;;;;0.00;0.00;;;3.00;99.90;;;;;;5075517;28;20051;-46
2021/12/14 05:49:08;;;;;;;0.00;0.00;;;3.00;99.90;;;;;;5094258;28;20031;-46
2021/12/14 05:51:34;;;;;;;0.00;0.00;;;3.00;99.90;;;;;;5092408;28;20093;-47
2021/12/14 05:54:01;;;;;;;0.00;0.00;;;3.00;99.90;;;;;;5093109;28;20028;-48
2021/12/14 05:56:29;;;;;;;0.00;0.00;;;2.90;99.90;;;;;;5089580;28;20118;-47
2021/12/14 05:58:56;;;;;;;0.00;0.00;;;3.00;99.90;;;;;;5083658;28;20105;-46
2021/12/14 06:01:29;;;;;;;0.00;0.00;;;2.80;99.90;;;;;;5090008;28;20535;-47
2021/12/14 06:04:02;;;;;;;0.00;0.00;;;2.80;99.90;;;;;;5087686;28;20366;-49
2021/12/14 06:06:33;;;;;;;0.00;0.00;;;2.80;99.90;;;;;;5079692;28;20523;-47
2021/12/14 06:09:29;;;;;;;0.00;0.00;;;2.80;99.90;;;;;;5085890;28;20012;-49
2021/12/14 06:12:04;;;;;;;0.00;0.00;;;2.70;99.90;;;;;;5100090;28;20038;-45
2021/12/14 06:14:31;;;;;;;0.00;0.00;;;2.70;99.90;;;;;;5086741;28;20024;-48
2021/12/14 06:17:00;;;;;;;0.00;0.00;;;2.70;99.90;;;;;;5078753;28;20020;-50
2021/12/14 06:19:30;;;;;;;0.00;0.00;;;2.70;99.90;;;;;;5077182;28;20032;-50
2021/12/14 06:22:06;;;;;;;0.00;0.00;;;2.70;99.90;;;;;;5079214;28;20024;-50
2021/12/14 06:24:36;;;;;;;0.00;0.00;;;2.60;99.90;;;;;;5091457;28;20024;-50
2021/12/14 06:27:05;;;;;;;0.00;0.00;;;2.60;99.90;;;;;;5092490;28;20024;-47
2021/12/14 06:29:37;;;;;;;0.00;0.00;;;2.60;99.90;;;;;;5092223;28;20434;-46
2021/12/14 06:32:13;;;;;;;0.00;0.00;;;2.70;99.90;;;;;;5092092;28;20024;-50
2021/12/14 06:34:55;;;;;;;0.00;0.00;;;2.70;99.90;;;;;;5091906;28;20028;-46
2021/12/14 06:40:15;;;;;;;;;;;2.70;99.90;;;;;;5092833;28;20063;-48
2021/12/14 06:42:45;;;;;;;0.00;0.00;;;2.70;99.90;;;;;;5066826;28;19919;-47
2021/12/14 06:45:20;;;;;;;0.00;0.00;;;2.80;99.90;;;;;;5092346;28;20062;-47
2021/12/14 06:47:51;;;;;;;0.10;0.10;;;2.80;99.90;;;;;;5092625;28;20420;-47
2021/12/14 06:50:26;;;;;;;0.00;0.00;;;2.90;99.90;;;;;;5091937;28;20036;-46
2021/12/14 06:52:58;;;;;;;0.00;0.00;;;2.80;99.90;;;;;;5092318;28;20137;-47
2021/12/14 06:55:25;;;;;;;0.00;0.00;;;2.70;99.90;;;;;;5092213;28;20032;-50
2021/12/14 06:57:51;;;;;;;0.00;0.00;;;2.70;99.90;;;;;;5091741;28;20055;-48
2021/12/14 07:00:18;;;;;;;0.00;0.00;;;2.90;99.90;;;;;;5092364;28;20047;-48
2021/12/14 07:02:49;;;;;;;0.00;0.00;;;3.00;99.90;;;;;;5091819;28;20039;-50
2021/12/14 07:05:24;;;;;;;0.00;0.00;;;3.00;99.90;;;;;;5053493;28;1113992;-45
2021/12/14 07:07:50;;;;;;;0.00;0.00;;;3.10;99.90;;;;;;5074706;28;20097;-46
2021/12/14 07:10:17;;;;;;;0.00;0.00;;;3.20;99.90;;;;;;5092338;28;20028;-48
2021/12/14 07:12:44;;;;;;;0.00;0.00;;;3.30;99.90;;;;;;5092951;28;20486;-46
2021/12/14 07:15:35;;;;;;;0.00;0.00;;;3.40;99.90;;;;;;5092462;28;20165;-49
2021/12/14 07:18:04;;;;;;;0.00;0.00;;;3.50;99.90;;;;;;5092579;28;20027;-52
2021/12/14 07:20:38;;;;;;;0.00;0.00;;;3.40;99.90;;;;;;5092251;28;20382;-48
2021/12/14 07:23:18;;;;;;;0.00;0.00;;;3.50;99.90;;;;;;5092844;28;20462;-46
2021/12/14 07:26:09;;;;;;;0.00;0.00;;;3.50;99.90;;;;;;5074471;28;20028;-48
2021/12/14 07:28:38;;;;;;;0.00;0.00;;;3.70;99.90;;;;;;5091778;28;20055;-49
2021/12/14 07:31:23;;;;;;;0.00;0.00;;;3.80;99.90;;;;;;5092273;28;20064;-49
2021/12/14 07:33:59;;;;;;;0.00;0.00;;;3.90;99.90;;;;;;5092434;28;20024;-49
2021/12/14 07:36:33;;;;;;;0.00;0.00;;;4.00;99.90;;;;;;5092321;28;20520;-49
2021/12/14 07:39:12;;;;;;;0.00;0.00;;;4.10;99.90;;;;;;5093135;28;20023;-48
2021/12/14 07:41:46;;;;;;;0.00;0.00;;;4.10;99.90;;;;;;5092923;28;20040;-48
2021/12/14 07:44:24;;;;;;;0.00;0.00;;;4.30;99.90;;;;;;5092757;28;20051;-49
2021/12/14 07:46:54;;;;;;;0.13;0.13;;;4.20;99.90;;;;;;5091981;28;20024;-49
2021/12/14 07:49:28;;;;;;;0.00;0.00;;;4.00;99.90;;;;;;5092536;28;20107;-50
2021/12/14 07:52:04;;;;;;;0.10;0.10;;;3.70;99.90;;;;;;5092609;28;20529;-48
2021/12/14 07:54:37;;;;;;;2.53;0.35;;;3.40;99.90;;;;;;5092582;28;20016;-48
2021/12/14 07:57:15;;;;;;;0.98;0.57;;;3.20;99.90;;;;;;5092427;28;20097;-46
2021/12/14 07:59:49;;;;;;;0.22;0.22;;;3.10;99.90;;;;;;5092040;28;20082;-48
2021/12/14 08:02:22;;;;;;;0.30;0.30;;;3.00;99.90;;;;;;5092959;28;20036;-50
2021/12/14 08:04:59;;;;;;;5.60;2.42;;;3.00;99.90;;;;;;5095762;28;20101;-47
2021/12/14 08:07:34;;;;;;;2.85;1.27;;;2.60;99.90;;;;;;5095914;28;20106;-49
2021/12/14 08:10:17;;;;;;;0.75;0.65;;;2.50;99.90;;;;;;5096176;28;20028;-48
2021/12/14 08:13:02;;;;;;;0.00;0.00;;;2.30;99.90;;;;;;5095922;28;20508;-49
2021/12/14 08:15:50;;;;;;;0.00;0.00;;;2.40;99.90;;;;;;5096283;28;20094;-46
2021/12/14 08:18:29;;;;;;;0.47;0.47;;;2.40;99.90;;;;;;5095890;28;20035;-46
2021/12/14 08:21:03;;;;;;;0.60;0.60;;;2.50;99.90;;;;;;5095282;28;20027;-45
2021/12/14 08:23:30;;;;;;;3.47;1.13;;;2.50;99.90;;;;;;5095863;28;20018;-49
2021/12/14 08:26:02;;;;;;;0.00;0.00;;;2.50;99.90;;;;;;5096073;28;20024;-47
2021/12/14 08:28:28;;;;;;;0.00;0.00;;;2.70;99.90;;;;;;5095668;28;20113;-52
2021/12/14 08:30:59;;;;;;;0.00;0.00;;;3.00;99.90;;;;;;5095329;28;20459;-51
2021/12/14 08:33:28;;;;;;;0.00;0.00;;;3.30;99.90;;;;;;5095692;28;20485;-51
2021/12/14 08:36:01;;;;;;;0.00;0.00;;;3.60;99.90;;;;;;5095609;28;20028;-50
2021/12/14 08:38:30;;;;;;;0.20;0.20;;;3.90;99.90;;;;;;5095564;28;20570;-47
2021/12/14 08:41:07;;;;;;;0.00;0.00;;;4.00;99.90;;;;;;5095226;28;20528;-49
2021/12/14 08:43:34;;;;;;;0.00;0.00;;;4.10;99.90;;;;;;5095421;28;20114;-48
2021/12/14 08:46:02;;;;;;;2.38;1.98;;;4.30;99.90;;;;;;5095138;28;20107;-48
2021/12/14 08:48:33;;;;;;;0.00;0.00;;;4.20;99.90;;;;;;5077005;28;20032;-47
2021/12/14 08:51:13;;;;;;;0.00;0.00;;;4.20;99.90;;;;;;5095528;28;20020;-47
2021/12/14 08:53:46;;;;;;;0.00;0.00;;;4.30;99.90;;;;;;5095135;28;20020;-49
2021/12/14 08:56:15;;;;;;;0.00;0.00;;;4.40;99.90;;;;;;5076940;28;20024;-47
2021/12/14 08:58:42;;;;;;;0.00;0.00;;;4.60;99.90;;;;;;5095209;28;20030;-49
2021/12/14 09:01:15;;;;;;;0.00;0.00;;;4.90;99.90;;;;;;5095403;28;20039;-50
2021/12/14 09:03:46;;;;;;;0.00;0.00;;;5.00;99.90;;;;;;5094701;28;20052;-51
2021/12/14 09:06:16;;;;;;;0.00;0.00;;;5.20;99.90;;;;;;5095050;28;20073;-49
2021/12/14 09:08:44;;;;;;;0.00;0.00;;;5.40;99.90;;;;;;5094669;28;20024;-46
2021/12/14 09:11:12;;;;;;;0.00;0.00;;;5.30;99.90;;;;;;5094330;28;20028;-48
2021/12/14 09:13:39;;;;;;;0.00;0.00;;;5.20;99.90;;;;;;5093688;28;20482;-47
2021/12/14 09:16:12;;;;;;;0.00;0.00;;;5.10;99.90;;;;;;5076383;28;20027;-47
2021/12/14 09:18:43;;;;;;;0.38;0.38;;;5.00;99.90;;;;;;5094379;28;20028;-48
2021/12/14 09:21:18;;;;;;;0.00;0.00;;;5.10;99.90;;;;;;5094297;28;20028;-46
2021/12/14 09:23:49;;;;;;;0.00;0.00;;;4.90;99.90;;;;;;5093982;28;20039;-48
2021/12/14 09:26:21;;;;;;;0.00;0.00;;;5.20;99.90;;;;;;5094184;28;20024;-48
2021/12/14 09:28:48;;;;;;;0.00;0.00;;;5.20;99.90;;;;;;5094505;28;20127;-48
2021/12/14 09:31:19;;;;;;;0.00;0.00;;;5.50;99.90;;;;;;5094225;28;20463;-50
2021/12/14 09:33:46;;;;;;;0.00;0.00;;;5.80;99.90;;;;;;5094145;28;20531;-48
2021/12/14 09:36:13;;;;;;;2.08;1.55;;;6.20;99.90;;;;;;5093923;28;20163;-47
2021/12/14 09:38:46;;;;;;;0.00;0.00;;;6.50;99.90;;;;;;5094060;28;20030;-49
2021/12/14 09:41:15;;;;;;;0.00;0.00;;;6.70;99.90;;;;;;5094093;28;20411;-49
2021/12/14 09:43:42;;;;;;;0.00;0.00;;;7.00;99.90;;;;;;5093460;28;20032;-46
2021/12/14 09:46:10;;;;;;;0.00;0.00;;;7.30;99.90;;;;;;5093777;28;20463;-49
2021/12/14 09:48:40;;;;;;;0.80;0.20;;;7.50;99.90;;;;;;5093942;28;20032;-47
2021/12/14 09:51:19;;;;;;;7.15;5.20;;;7.60;99.90;;;;;;5093844;28;20455;-49
2021/12/14 09:53:49;;;;;;;0.00;0.00;;;7.70;99.90;;;;;;5093981;28;20052;-49
2021/12/14 09:56:17;;;;;;;0.00;0.00;;;7.50;99.90;;;;;;5094459;28;20031;-48
2021/12/14 09:58:46;;;;;;;0.00;0.00;;;7.50;99.90;;;;;;5093858;28;20024;-51
2021/12/14 10:01:19;;;;;;;0.00;0.00;;;7.50;99.90;;;;;;5094072;28;20061;-47
2021/12/14 10:03:47;;;;;;;0.00;0.00;;;7.50;99.90;;;;;;5093680;28;20440;-51
2021/12/14 10:06:18;;;;;;;0.00;0.00;;;7.60;99.90;;;;;;5093795;28;20044;-50
2021/12/14 10:08:51;;;;;;;0.15;0.15;;;7.40;99.90;;;;;;5075401;28;20107;-50
2021/12/14 10:11:35;;;;;;;0.50;0.50;;;7.10;99.90;;;;;;5093486;28;20024;-49
2021/12/14 10:14:03;;;;;;;0.00;0.00;;;6.70;99.90;;;;;;5093148;28;20142;-50
2021/12/14 10:16:28;;;;;;;1.38;1.05;;;6.60;99.90;;;;;;5093223;28;20031;-49
2021/12/14 10:19:04;;;;;;;0.03;0.00;;;6.50;99.90;;;;;;5093384;28;20024;-49
2021/12/14 10:21:43;;;;;;;0.00;0.00;;;6.50;99.90;;;;;;5093873;28;20130;-49
2021/12/14 10:24:09;;;;;;;3.10;0.47;;;6.60;99.90;;;;;;5093437;28;20077;-49
2021/12/14 10:26:40;;;;;;;0.15;0.15;;;6.90;99.90;;;;;;5093106;28;20020;-49
2021/12/14 10:29:07;;;;;;;0.57;0.57;;;6.80;99.90;;;;;;5093340;28;20055;-48
2021/12/14 10:31:37;;;;;;;0.00;0.00;;;6.50;99.90;;;;;;5093294;28;20258;-48
2021/12/14 10:34:06;;;;;;;0.73;0.50;;;6.50;99.90;;;;;;5075192;28;20378;-47
2021/12/14 10:36:40;;;;;;;0.43;0.22;;;6.80;99.90;;;;;;5093321;28;20098;-51
2021/12/14 10:44:32;;;;;;;0.00;0.00;;;7.30;99.90;;;;;;5092894;28;20035;-50
2021/12/14 10:46:59;;;;;;;0.52;0.40;;;7.50;99.90;;;;;;5092753;28;20039;-52
2021/12/14 10:49:26;;;;;;;0.10;0.10;;;7.40;99.90;;;;;;5092756;28;20032;-52
2021/12/14 10:52:00;;;;;;;0.15;0.15;;;7.20;99.90;;;;;;5092961;28;20032;-48
2021/12/14 10:54:27;;;;;;;0.30;0.30;;;7.20;99.90;;;;;;5092850;28;20028;-46
2021/12/14 10:56:55;;;;;;;1.05;0.80;;;7.00;99.90;;;;;;5092518;28;20093;-48
2021/12/14 10:59:25;;;;;;;0.10;0.10;;;6.70;99.90;;;;;;5092388;28;20021;-51
2021/12/14 11:01:52;;;;;;;0.00;0.00;;;6.50;99.90;;;;;;5092776;28;20032;-47
2021/12/14 11:04:33;;;;;;;0.00;0.00;;;6.60;99.90;;;;;;5074445;28;20139;-47
2021/12/14 11:07:01;;;;;;;0.00;0.00;;;6.70;99.90;;;;;;5093026;28;20028;-47
2021/12/14 11:09:45;;;;;;;0.00;0.00;;;7.10;99.90;;;;;;5092309;28;20017;-48
2021/12/14 11:12:23;;;;;;;1.38;0.30;;;7.20;99.90;;;;;;5092873;28;20039;-48
2021/12/14 11:14:55;;;;;;;1.10;0.55;;;7.20;99.90;;;;;;5092765;28;20027;-49
2021/12/14 11:20:05;;;;;;;0.60;0.43;;;6.90;99.90;;;;;;5092636;28;20035;-50
2021/12/14 11:22:42;;;;;;;1.35;1.10;;;6.80;99.90;;;;;;5092650;28;20382;-50
2021/12/14 11:25:16;;;;;;;1.80;0.63;;;6.60;99.90;;;;;;5092550;28;20035;-47
2021/12/14 11:27:58;;;;;;;0.10;0.10;;;6.50;99.90;;;;;;5092221;28;20503;-47
2021/12/14 11:30:32;;;;;;;4.38;1.00;;;6.60;99.90;;;;;;5092361;28;20028;-49
2021/12/14 11:33:25;;;;;;;1.83;1.05;;;6.60;99.90;;;;;;5092077;28;20051;-47
2021/12/14 11:36:18;;;;;;;0.13;0.13;;;7.00;99.90;;;;;;5083861;28;20117;-48
2021/12/14 11:39:10;;;;;;;0.45;0.35;;;8.60;99.90;;;;;;5095612;28;20028;-47
2021/12/14 11:41:56;;;;;;;3.15;1.23;;;8.00;99.90;;;;;;5095781;28;20059;-48
2021/12/14 11:44:36;;;;;;;0.10;0.10;;;7.30;99.90;;;;;;5082081;28;20137;-47
2021/12/14 11:47:08;;;;;;;0.60;0.60;;;7.20;99.90;;;;;;5096207;28;20020;-47
2021/12/14 11:49:44;;;;;;;0.57;0.20;;;7.10;99.90;;;;;;5096094;28;20016;-50
2021/12/14 11:52:10;;;;;;;0.65;0.32;;;7.00;99.90;;;;;;5096152;28;20085;-48
2021/12/14 11:54:46;;;;;;;0.00;0.00;;;7.00;99.90;;;;;;5095847;28;20112;-47
2021/12/14 11:57:14;;;;;;;2.70;0.82;;;7.00;99.90;;;;;;5077887;28;20332;-51
2021/12/14 11:59:40;;;;;;;0.82;0.45;;;7.00;99.90;;;;;;5095735;28;20024;-49
2021/12/14 12:02:07;;;;;;;0.17;0.15;;;7.00;99.90;;;;;;5095462;28;20051;-53
2021/12/14 12:04:35;;;;;;;0.20;0.20;;;7.10;99.90;;;;;;5095834;28;20048;-48
2021/12/14 12:09:48;;;;;;;0.00;0.00;;;7.30;99.90;;;;;;5095898;28;20368;-47
2021/12/14 12:12:18;;;;;;;2.28;1.30;;;7.40;99.90;;;;;;5096026;28;20028;-47
2021/12/14 12:15:08;;;;;;;0.28;0.22;;;7.30;99.90;;;;;;5095334;28;20386;-50
2021/12/14 12:17:48;;;;;;;0.82;0.68;;;7.10;99.90;;;;;;5095690;28;20016;-45
2021/12/14 12:20:23;;;;;;;0.00;0.00;;;7.00;99.90;;;;;;5077313;28;20024;-51
2021/12/14 12:23:04;;;;;;;0.00;0.00;;;7.10;99.90;;;;;;5095932;28;20349;-50
2021/12/14 12:25:47;;;;;;;0.20;0.17;;;7.20;99.90;;;;;;5077314;28;20042;-49
2021/12/14 12:28:15;;;;;;;0.60;0.47;;;7.30;99.90;;;;;;5094918;28;20207;-50
2021/12/14 12:30:52;;;;;;;1.90;0.52;;;7.30;99.90;;;;;;5095435;28;20020;-51
2021/12/14 12:33:30;;;;;;;0.55;0.40;;;7.20;99.90;;;;;;5077182;28;20147;-50
2021/12/14 12:36:14;;;;;;;0.00;0.00;;;7.30;99.90;;;;;;5095469;28;20111;-49
2021/12/14 12:39:10;;;;;;;1.02;0.85;;;7.20;99.90;;;;;;5095370;28;20027;-50
2021/12/14 12:41:47;;;;;;;0.50;0.50;;;7.00;99.90;;;;;;5094442;28;20029;-49
2021/12/14 12:44:15;;;;;;;0.00;0.00;;;6.90;99.90;;;;;;5094998;28;20016;-47
2021/12/14 12:46:48;;;;;;;0.73;0.73;;;6.90;99.90;;;;;;5094895;28;20035;-49
2021/12/14 12:49:23;;;;;;;0.00;0.00;;;6.80;99.90;;;;;;5095170;28;20084;-48
2021/12/14 12:51:59;;;;;;;0.20;0.10;;;6.80;99.90;;;;;;5094711;28;20111;-47
2021/12/14 12:54:39;;;;;;;3.38;1.75;;;6.90;99.90;;;;;;5094869;28;20081;-47
2021/12/14 12:57:08;;;;;;;0.00;0.00;;;7.00;99.90;;;;;;5095092;28;20077;-48
2021/12/14 13:00:16;;;;;;;0.00;0.00;;;6.90;99.90;;;;;;5076943;28;20380;-49
2021/12/14 13:02:53;;;;;;;0.00;0.00;;;7.10;99.90;;;;;;5083828;28;20100;-49
2021/12/14 13:05:34;;;;;;;4.28;1.65;;;7.30;99.90;;;;;;5095221;28;20471;-50
2021/12/14 13:08:07;;;;;;;0.00;0.00;;;7.40;99.90;;;;;;5095094;28;20032;-48
2021/12/14 13:10:34;;;;;;;0.47;0.47;;;7.40;99.90;;;;;;5076327;28;20024;-48
2021/12/14 13:13:03;;;;;;;0.00;0.00;;;7.40;99.90;;;;;;5094747;28;20069;-50
2021/12/14 13:15:52;;;;;;;0.73;0.73;;;7.30;99.90;;;;;;5094080;28;20359;-50
2021/12/14 13:18:32;;;;;;;0.13;0.13;;;7.50;99.90;;;;;;5094395;28;20025;-49
2021/12/14 13:21:30;;;;;;;0.47;0.47;;;7.60;99.90;;;;;;5094307;28;20526;-50
2021/12/14 13:24:07;;;;;;;0.00;0.00;;;7.60;99.90;;;;;;5094177;28;20364;-50
2021/12/14 13:26:43;;;;;;;0.00;0.00;;;7.60;99.90;;;;;;5094417;28;20056;-50
2021/12/14 13:29:12;;;;;;;0.08;0.08;;;7.70;99.90;;;;;;5094300;28;20024;-49
2021/12/14 13:31:58;;;;;;;0.00;0.00;;;7.50;99.90;;;;;;5094029;28;20040;-48
2021/12/14 13:34:45;;;;;;;0.00;0.00;;;7.50;99.90;;;;;;5094267;28;20451;-52
2021/12/14 13:37:14;;;;;;;0.00;0.00;;;7.60;99.90;;;;;;5093707;28;20081;-50
2021/12/14 13:39:41;;;;;;;0.00;0.00;;;7.60;99.90;;;;;;5075597;28;20031;-47
2021/12/14 13:42:12;;;;;;;0.00;0.00;;;7.70;99.90;;;;;;5090309;28;20040;-48
2021/12/14 13:44:50;;;;;;;0.00;0.00;;;7.50;99.90;;;;;;5092857;28;20032;-50
2021/12/14 13:47:17;;;;;;;0.25;0.10;;;7.40;99.90;;;;;;5090502;28;20374;-52
2021/12/14 13:49:44;;;;;;;0.00;0.00;;;7.50;99.90;;;;;;5081419;28;20032;-52
2021/12/14 13:52:13;;;;;;;0.00;0.00;;;7.60;99.90;;;;;;5074187;28;20063;-52
2021/12/14 13:55:07;;;;;;;0.00;0.00;;;7.50;99.90;;;;;;5087202;28;20478;-47
2021/12/14 13:57:34;;;;;;;0.00;0.00;;;7.70;99.90;;;;;;5092384;28;20120;-46
2021/12/14 14:00:01;;;;;;;0.00;0.00;;;7.70;99.90;;;;;;5090018;28;20081;-49
2021/12/14 14:02:27;;;;;;;0.00;0.00;;;7.60;99.90;;;;;;5079912;28;20035;-55
2021/12/14 14:04:53;;;;;;;0.00;0.00;;;7.70;99.90;;;;;;5087194;28;20043;-50
2021/12/14 14:07:18;;;;;;;0.00;0.00;;;7.60;99.90;;;;;;5076254;28;20029;-46
2021/12/14 14:09:44;;;;;;;0.00;0.00;;;7.50;99.90;;;;;;5073872;28;20077;-50